sensor_id;sensor_type;location;lat;lon;timestamp;P1;durP1;ratioP1;P2;durP2;ratioP2
32152;SDS011;18656;50.580;11.392;2023-06-26T00:01:33;9.20;;;7.45;;
32152;SDS011;18656;50.580;11.392;2023-06-26T00:04:00;7.43;;;6.82;;
32152;SDS011;18656;50.580;11.392;2023-06-26T00:06:28;7.75;;;7.07;;
32152;SDS011;18656;50.580;11.392;2023-06-26T00:08:55;7.40;;;6.72;;
32152;SDS011;18656;50.580;11.392;2023-06-26T00:11:25;9.55;;;6.95;;
32152;SDS011;18656;50.580;11.392;2023-06-26T00:13:53;10.57;;;7.30;;
32152;SDS011;18656;50.580;11.392;2023-06-26T00:16:21;7.13;;;6.53;;
32152;SDS011;18656;50.580;11.392;2023-06-26T00:18:48;8.85;;;6.95;;
32152;SDS011;18656;50.580;11.392;2023-06-26T00:21:15;8.57;;;7.53;;
32152;SDS011;18656;50.580;11.392;2023-06-26T00:23:42;11.13;;;8.10;;
32152;SDS011;18656;50.580;11.392;2023-06-26T00:26:10;8.02;;;7.22;;
32152;SDS011;18656;50.580;11.392;2023-06-26T00:28:37;7.90;;;7.20;;
32152;SDS011;18656;50.580;11.392;2023-06-26T00:31:04;8.77;;;7.72;;
32152;SDS011;18656;50.580;11.392;2023-06-26T00:33:31;10.65;;;8.57;;
32152;SDS011;18656;50.580;11.392;2023-06-26T00:35:59;8.95;;;8.15;;
32152;SDS011;18656;50.580;11.392;2023-06-26T00:38:26;8.60;;;7.80;;
32152;SDS011;18656;50.580;11.392;2023-06-26T00:40:53;9.10;;;8.20;;
32152;SDS011;18656;50.580;11.392;2023-06-26T00:43:22;8.82;;;8.02;;
32152;SDS011;18656;50.580;11.392;2023-06-26T00:45:49;11.07;;;8.30;;
32152;SDS011;18656;50.580;11.392;2023-06-26T00:48:16;8.40;;;7.60;;
32152;SDS011;18656;50.580;11.392;2023-06-26T00:50:44;9.75;;;8.82;;
32152;SDS011;18656;50.580;11.392;2023-06-26T00:53:11;8.35;;;7.57;;
32152;SDS011;18656;50.580;11.392;2023-06-26T00:55:39;8.15;;;7.45;;
32152;SDS011;18656;50.580;11.392;2023-06-26T00:58:06;9.57;;;8.68;;
32152;SDS011;18656;50.580;11.392;2023-06-26T01:00:33;8.82;;;8.00;;
32152;SDS011;18656;50.580;11.392;2023-06-26T01:03:01;9.20;;;8.25;;
32152;SDS011;18656;50.580;11.392;2023-06-26T01:05:28;9.10;;;8.30;;
32152;SDS011;18656;50.580;11.392;2023-06-26T01:07:56;9.88;;;8.98;;
32152;SDS011;18656;50.580;11.392;2023-06-26T01:10:25;9.70;;;8.80;;
32152;SDS011;18656;50.580;11.392;2023-06-26T01:12:55;10.13;;;9.00;;
32152;SDS011;18656;50.580;11.392;2023-06-26T01:15:23;10.15;;;9.15;;
32152;SDS011;18656;50.580;11.392;2023-06-26T01:17:51;9.75;;;8.75;;
32152;SDS011;18656;50.580;11.392;2023-06-26T01:20:18;10.23;;;8.90;;
32152;SDS011;18656;50.580;11.392;2023-06-26T01:28:09;9.68;;;8.70;;
32152;SDS011;18656;50.580;11.392;2023-06-26T01:30:38;9.93;;;8.95;;
32152;SDS011;18656;50.580;11.392;2023-06-26T01:33:06;10.70;;;9.60;;
32152;SDS011;18656;50.580;11.392;2023-06-26T01:35:33;10.00;;;9.00;;
32152;SDS011;18656;50.580;11.392;2023-06-26T01:38:11;9.68;;;8.43;;
32152;SDS011;18656;50.580;11.392;2023-06-26T01:40:38;9.80;;;8.80;;
32152;SDS011;18656;50.580;11.392;2023-06-26T01:43:06;11.00;;;9.73;;
32152;SDS011;18656;50.580;11.392;2023-06-26T01:45:38;10.18;;;9.25;;
32152;SDS011;18656;50.580;11.392;2023-06-26T01:48:06;10.48;;;9.30;;
32152;SDS011;18656;50.580;11.392;2023-06-26T01:50:35;12.40;;;9.45;;
32152;SDS011;18656;50.580;11.392;2023-06-26T01:55:46;11.40;;;10.23;;
32152;SDS011;18656;50.580;11.392;2023-06-26T01:58:13;11.15;;;10.07;;
32152;SDS011;18656;50.580;11.392;2023-06-26T02:00:43;11.07;;;10.05;;
32152;SDS011;18656;50.580;11.392;2023-06-26T02:03:10;11.30;;;10.20;;
32152;SDS011;18656;50.580;11.392;2023-06-26T02:05:38;12.15;;;11.02;;
32152;SDS011;18656;50.580;11.392;2023-06-26T02:08:05;11.35;;;10.10;;
32152;SDS011;18656;50.580;11.392;2023-06-26T02:10:32;11.52;;;10.35;;
32152;SDS011;18656;50.580;11.392;2023-06-26T02:13:00;11.60;;;10.50;;
32152;SDS011;18656;50.580;11.392;2023-06-26T02:15:28;14.00;;;11.38;;
32152;SDS011;18656;50.580;11.392;2023-06-26T02:17:55;12.55;;;11.25;;
32152;SDS011;18656;50.580;11.392;2023-06-26T02:20:22;13.38;;;11.55;;
32152;SDS011;18656;50.580;11.392;2023-06-26T02:22:49;12.85;;;11.55;;
32152;SDS011;18656;50.580;11.392;2023-06-26T02:25:17;13.55;;;11.57;;
32152;SDS011;18656;50.580;11.392;2023-06-26T02:27:44;21.52;;;12.13;;
32152;SDS011;18656;50.580;11.392;2023-06-26T02:30:12;12.23;;;10.68;;
32152;SDS011;18656;50.580;11.392;2023-06-26T02:32:39;11.90;;;10.77;;
32152;SDS011;18656;50.580;11.392;2023-06-26T02:35:06;12.93;;;11.52;;
32152;SDS011;18656;50.580;11.392;2023-06-26T02:37:34;13.70;;;11.65;;
32152;SDS011;18656;50.580;11.392;2023-06-26T02:40:01;12.80;;;11.60;;
32152;SDS011;18656;50.580;11.392;2023-06-26T02:42:30;13.13;;;11.13;;
32152;SDS011;18656;50.580;11.392;2023-06-26T02:44:58;12.27;;;11.07;;
32152;SDS011;18656;50.580;11.392;2023-06-26T02:47:25;14.10;;;12.15;;
32152;SDS011;18656;50.580;11.392;2023-06-26T02:49:52;13.07;;;11.70;;
32152;SDS011;18656;50.580;11.392;2023-06-26T02:52:20;12.80;;;11.30;;
32152;SDS011;18656;50.580;11.392;2023-06-26T02:54:47;11.80;;;10.52;;
32152;SDS011;18656;50.580;11.392;2023-06-26T02:57:14;14.52;;;13.02;;
32152;SDS011;18656;50.580;11.392;2023-06-26T02:59:43;19.13;;;10.90;;
32152;SDS011;18656;50.580;11.392;2023-06-26T03:02:10;12.65;;;11.45;;
32152;SDS011;18656;50.580;11.392;2023-06-26T03:04:38;12.85;;;11.55;;
32152;SDS011;18656;50.580;11.392;2023-06-26T03:07:05;14.25;;;12.70;;
32152;SDS011;18656;50.580;11.392;2023-06-26T03:09:32;12.35;;;11.05;;
32152;SDS011;18656;50.580;11.392;2023-06-26T03:11:59;15.30;;;13.32;;
32152;SDS011;18656;50.580;11.392;2023-06-26T03:14:27;14.70;;;12.75;;
32152;SDS011;18656;50.580;11.392;2023-06-26T03:16:55;15.75;;;13.40;;
32152;SDS011;18656;50.580;11.392;2023-06-26T03:19:24;13.63;;;12.23;;
32152;SDS011;18656;50.580;11.392;2023-06-26T03:21:51;14.95;;;13.20;;
32152;SDS011;18656;50.580;11.392;2023-06-26T03:24:19;12.68;;;11.38;;
32152;SDS011;18656;50.580;11.392;2023-06-26T03:26:46;14.23;;;12.43;;
32152;SDS011;18656;50.580;11.392;2023-06-26T03:29:13;15.38;;;12.73;;
32152;SDS011;18656;50.580;11.392;2023-06-26T03:31:40;14.68;;;12.85;;
32152;SDS011;18656;50.580;11.392;2023-06-26T03:34:08;15.35;;;12.35;;
32152;SDS011;18656;50.580;11.392;2023-06-26T03:36:35;14.02;;;12.63;;
32152;SDS011;18656;50.580;11.392;2023-06-26T03:39:02;12.82;;;11.55;;
32152;SDS011;18656;50.580;11.392;2023-06-26T03:41:30;12.25;;;11.15;;
32152;SDS011;18656;50.580;11.392;2023-06-26T03:43:57;15.25;;;11.93;;
32152;SDS011;18656;50.580;11.392;2023-06-26T03:46:26;16.83;;;13.57;;
32152;SDS011;18656;50.580;11.392;2023-06-26T03:48:53;19.40;;;14.80;;
32152;SDS011;18656;50.580;11.392;2023-06-26T03:51:21;14.20;;;12.80;;
32152;SDS011;18656;50.580;11.392;2023-06-26T03:53:48;14.32;;;12.90;;
32152;SDS011;18656;50.580;11.392;2023-06-26T03:56:15;17.10;;;13.20;;
32152;SDS011;18656;50.580;11.392;2023-06-26T03:58:42;18.17;;;14.60;;
32152;SDS011;18656;50.580;11.392;2023-06-26T04:01:10;15.07;;;13.68;;
32152;SDS011;18656;50.580;11.392;2023-06-26T04:03:37;14.52;;;13.02;;
32152;SDS011;18656;50.580;11.392;2023-06-26T04:06:04;13.48;;;12.07;;
32152;SDS011;18656;50.580;11.392;2023-06-26T04:08:32;16.05;;;12.38;;
32152;SDS011;18656;50.580;11.392;2023-06-26T04:10:59;12.95;;;11.70;;
32152;SDS011;18656;50.580;11.392;2023-06-26T04:13:27;13.20;;;11.93;;
32152;SDS011;18656;50.580;11.392;2023-06-26T04:15:54;14.27;;;12.30;;
32152;SDS011;18656;50.580;11.392;2023-06-26T04:18:21;12.52;;;11.23;;
32152;SDS011;18656;50.580;11.392;2023-06-26T04:21:23;13.10;;;11.73;;
32152;SDS011;18656;50.580;11.392;2023-06-26T04:23:43;11.88;;;10.48;;
32152;SDS011;18656;50.580;11.392;2023-06-26T04:26:10;12.68;;;10.98;;
32152;SDS011;18656;50.580;11.392;2023-06-26T04:28:41;16.40;;;12.27;;
32152;SDS011;18656;50.580;11.392;2023-06-26T04:31:08;18.27;;;12.25;;
32152;SDS011;18656;50.580;11.392;2023-06-26T04:33:36;12.52;;;10.40;;
32152;SDS011;18656;50.580;11.392;2023-06-26T04:36:08;16.73;;;9.93;;
32152;SDS011;18656;50.580;11.392;2023-06-26T04:38:35;13.32;;;9.43;;
32152;SDS011;18656;50.580;11.392;2023-06-26T04:41:02;16.55;;;9.88;;
32152;SDS011;18656;50.580;11.392;2023-06-26T04:43:30;19.67;;;10.85;;
32152;SDS011;18656;50.580;11.392;2023-06-26T04:45:57;11.25;;;9.65;;
32152;SDS011;18656;50.580;11.392;2023-06-26T04:48:25;10.13;;;8.95;;
32152;SDS011;18656;50.580;11.392;2023-06-26T04:50:57;9.77;;;8.77;;
32152;SDS011;18656;50.580;11.392;2023-06-26T04:53:25;12.55;;;8.75;;
32152;SDS011;18656;50.580;11.392;2023-06-26T04:55:53;12.18;;;8.32;;
32152;SDS011;18656;50.580;11.392;2023-06-26T04:58:20;8.75;;;7.57;;
32152;SDS011;18656;50.580;11.392;2023-06-26T05:00:47;8.73;;;7.78;;
32152;SDS011;18656;50.580;11.392;2023-06-26T05:03:16;7.60;;;6.95;;
32152;SDS011;18656;50.580;11.392;2023-06-26T05:05:44;10.23;;;7.93;;
32152;SDS011;18656;50.580;11.392;2023-06-26T05:08:15;9.05;;;7.28;;
32152;SDS011;18656;50.580;11.392;2023-06-26T05:10:43;6.82;;;6.25;;
32152;SDS011;18656;50.580;11.392;2023-06-26T05:13:10;8.52;;;6.15;;
32152;SDS011;18656;50.580;11.392;2023-06-26T05:15:37;7.65;;;6.82;;
32152;SDS011;18656;50.580;11.392;2023-06-26T05:18:05;7.25;;;5.57;;
32152;SDS011;18656;50.580;11.392;2023-06-26T05:20:32;5.55;;;5.00;;
32152;SDS011;18656;50.580;11.392;2023-06-26T05:23:00;5.85;;;5.28;;
32152;SDS011;18656;50.580;11.392;2023-06-26T05:25:29;5.53;;;4.97;;
32152;SDS011;18656;50.580;11.392;2023-06-26T05:27:56;7.18;;;5.25;;
32152;SDS011;18656;50.580;11.392;2023-06-26T05:30:24;5.20;;;4.70;;
32152;SDS011;18656;50.580;11.392;2023-06-26T05:32:52;5.35;;;4.90;;
32152;SDS011;18656;50.580;11.392;2023-06-26T05:35:20;6.47;;;4.72;;
32152;SDS011;18656;50.580;11.392;2023-06-26T05:37:51;5.43;;;4.93;;
32152;SDS011;18656;50.580;11.392;2023-06-26T05:40:19;5.50;;;4.93;;
32152;SDS011;18656;50.580;11.392;2023-06-26T05:42:46;7.18;;;5.40;;
32152;SDS011;18656;50.580;11.392;2023-06-26T05:45:13;8.57;;;4.97;;
32152;SDS011;18656;50.580;11.392;2023-06-26T05:47:41;7.07;;;4.80;;
32152;SDS011;18656;50.580;11.392;2023-06-26T05:50:09;12.88;;;5.50;;
32152;SDS011;18656;50.580;11.392;2023-06-26T05:52:36;7.60;;;5.40;;
32152;SDS011;18656;50.580;11.392;2023-06-26T05:55:05;7.53;;;5.43;;
32152;SDS011;18656;50.580;11.392;2023-06-26T05:57:32;8.02;;;4.90;;
32152;SDS011;18656;50.580;11.392;2023-06-26T06:00:01;5.43;;;4.85;;
32152;SDS011;18656;50.580;11.392;2023-06-26T06:02:31;7.18;;;5.13;;
32152;SDS011;18656;50.580;11.392;2023-06-26T06:04:59;4.65;;;4.35;;
32152;SDS011;18656;50.580;11.392;2023-06-26T06:07:26;5.55;;;5.05;;
32152;SDS011;18656;50.580;11.392;2023-06-26T06:09:53;7.07;;;4.40;;
32152;SDS011;18656;50.580;11.392;2023-06-26T06:12:21;5.13;;;4.45;;
32152;SDS011;18656;50.580;11.392;2023-06-26T06:14:48;9.02;;;4.90;;
32152;SDS011;18656;50.580;11.392;2023-06-26T06:17:15;5.07;;;4.45;;
32152;SDS011;18656;50.580;11.392;2023-06-26T06:19:42;7.13;;;4.55;;
32152;SDS011;18656;50.580;11.392;2023-06-26T06:22:10;9.90;;;4.72;;
32152;SDS011;18656;50.580;11.392;2023-06-26T06:24:37;12.60;;;5.40;;
32152;SDS011;18656;50.580;11.392;2023-06-26T06:27:04;6.70;;;4.60;;
32152;SDS011;18656;50.580;11.392;2023-06-26T06:29:31;9.88;;;4.82;;
32152;SDS011;18656;50.580;11.392;2023-06-26T06:31:59;5.85;;;4.70;;
32152;SDS011;18656;50.580;11.392;2023-06-26T06:34:26;7.95;;;4.68;;
32152;SDS011;18656;50.580;11.392;2023-06-26T06:36:53;11.90;;;4.82;;
32152;SDS011;18656;50.580;11.392;2023-06-26T06:39:20;7.32;;;4.40;;
32152;SDS011;18656;50.580;11.392;2023-06-26T06:41:47;7.43;;;4.60;;
32152;SDS011;18656;50.580;11.392;2023-06-26T06:44:15;7.82;;;4.53;;
32152;SDS011;18656;50.580;11.392;2023-06-26T06:46:42;9.20;;;4.85;;
32152;SDS011;18656;50.580;11.392;2023-06-26T06:49:09;8.85;;;4.28;;
32152;SDS011;18656;50.580;11.392;2023-06-26T06:51:36;6.40;;;4.70;;
32152;SDS011;18656;50.580;11.392;2023-06-26T06:54:04;8.25;;;4.50;;
32152;SDS011;18656;50.580;11.392;2023-06-26T06:56:31;8.18;;;4.32;;
32152;SDS011;18656;50.580;11.392;2023-06-26T06:58:58;5.65;;;4.13;;
32152;SDS011;18656;50.580;11.392;2023-06-26T07:01:25;4.70;;;4.30;;
32152;SDS011;18656;50.580;11.392;2023-06-26T07:03:53;4.53;;;4.22;;
32152;SDS011;18656;50.580;11.392;2023-06-26T07:06:20;4.07;;;3.78;;
32152;SDS011;18656;50.580;11.392;2023-06-26T07:08:47;3.85;;;3.65;;
32152;SDS011;18656;50.580;11.392;2023-06-26T07:11:16;4.18;;;3.88;;
32152;SDS011;18656;50.580;11.392;2023-06-26T07:13:43;4.60;;;4.20;;
32152;SDS011;18656;50.580;11.392;2023-06-26T07:16:13;4.72;;;4.32;;
32152;SDS011;18656;50.580;11.392;2023-06-26T07:18:41;4.40;;;4.10;;
32152;SDS011;18656;50.580;11.392;2023-06-26T07:21:10;4.20;;;3.90;;
32152;SDS011;18656;50.580;11.392;2023-06-26T07:23:37;4.53;;;4.18;;
32152;SDS011;18656;50.580;11.392;2023-06-26T07:26:04;4.43;;;4.03;;
32152;SDS011;18656;50.580;11.392;2023-06-26T07:28:31;4.38;;;3.63;;
32152;SDS011;18656;50.580;11.392;2023-06-26T07:30:59;4.07;;;3.65;;
32152;SDS011;18656;50.580;11.392;2023-06-26T07:33:26;4.25;;;3.95;;
32152;SDS011;18656;50.580;11.392;2023-06-26T07:35:53;4.03;;;3.83;;
32152;SDS011;18656;50.580;11.392;2023-06-26T07:38:20;6.05;;;3.78;;
32152;SDS011;18656;50.580;11.392;2023-06-26T07:40:48;4.10;;;3.80;;
32152;SDS011;18656;50.580;11.392;2023-06-26T07:43:15;4.40;;;4.03;;
32152;SDS011;18656;50.580;11.392;2023-06-26T07:45:43;4.10;;;3.80;;
32152;SDS011;18656;50.580;11.392;2023-06-26T07:48:10;4.53;;;4.13;;
32152;SDS011;18656;50.580;11.392;2023-06-26T07:50:37;3.92;;;3.72;;
32152;SDS011;18656;50.580;11.392;2023-06-26T07:53:05;4.03;;;3.83;;
32152;SDS011;18656;50.580;11.392;2023-06-26T07:55:32;4.53;;;4.10;;
32152;SDS011;18656;50.580;11.392;2023-06-26T07:58:00;4.40;;;4.00;;
32152;SDS011;18656;50.580;11.392;2023-06-26T08:00:27;5.15;;;3.70;;
32152;SDS011;18656;50.580;11.392;2023-06-26T08:02:54;4.30;;;4.00;;
32152;SDS011;18656;50.580;11.392;2023-06-26T08:05:22;6.45;;;3.88;;
32152;SDS011;18656;50.580;11.392;2023-06-26T08:07:49;4.40;;;4.10;;
32152;SDS011;18656;50.580;11.392;2023-06-26T08:10:17;4.30;;;4.00;;
32152;SDS011;18656;50.580;11.392;2023-06-26T08:12:44;3.58;;;3.28;;
32152;SDS011;18656;50.580;11.392;2023-06-26T08:15:11;3.85;;;3.60;;
32152;SDS011;18656;50.580;11.392;2023-06-26T08:17:39;3.90;;;3.70;;
32152;SDS011;18656;50.580;11.392;2023-06-26T08:20:06;10.73;;;4.20;;
32152;SDS011;18656;50.580;11.392;2023-06-26T08:22:37;4.10;;;3.70;;
32152;SDS011;18656;50.580;11.392;2023-06-26T08:25:04;5.38;;;3.70;;
32152;SDS011;18656;50.580;11.392;2023-06-26T08:27:32;4.70;;;3.63;;
32152;SDS011;18656;50.580;11.392;2023-06-26T08:29:59;3.72;;;3.38;;
32152;SDS011;18656;50.580;11.392;2023-06-26T08:32:26;4.38;;;3.90;;
32152;SDS011;18656;50.580;11.392;2023-06-26T08:34:55;4.03;;;3.20;;
32152;SDS011;18656;50.580;11.392;2023-06-26T08:37:22;3.90;;;3.53;;
32152;SDS011;18656;50.580;11.392;2023-06-26T08:39:50;4.18;;;3.78;;
32152;SDS011;18656;50.580;11.392;2023-06-26T08:42:17;4.07;;;3.70;;
32152;SDS011;18656;50.580;11.392;2023-06-26T08:44:44;4.22;;;3.60;;
32152;SDS011;18656;50.580;11.392;2023-06-26T08:47:27;6.23;;;3.30;;
32152;SDS011;18656;50.580;11.392;2023-06-26T08:49:56;5.88;;;3.50;;
32152;SDS011;18656;50.580;11.392;2023-06-26T08:52:33;4.80;;;3.50;;
32152;SDS011;18656;50.580;11.392;2023-06-26T08:55:02;5.68;;;3.70;;
32152;SDS011;18656;50.580;11.392;2023-06-26T08:57:32;4.18;;;3.80;;
32152;SDS011;18656;50.580;11.392;2023-06-26T09:00:00;3.55;;;3.20;;
32152;SDS011;18656;50.580;11.392;2023-06-26T09:02:28;3.42;;;3.17;;
32152;SDS011;18656;50.580;11.392;2023-06-26T09:04:55;4.70;;;3.58;;
32152;SDS011;18656;50.580;11.392;2023-06-26T09:07:23;4.25;;;3.45;;
32152;SDS011;18656;50.580;11.392;2023-06-26T09:09:50;4.43;;;3.75;;
32152;SDS011;18656;50.580;11.392;2023-06-26T09:12:17;4.03;;;3.60;;
32152;SDS011;18656;50.580;11.392;2023-06-26T09:14:45;6.70;;;3.60;;
32152;SDS011;18656;50.580;11.392;2023-06-26T09:17:15;5.43;;;3.70;;
32152;SDS011;18656;50.580;11.392;2023-06-26T09:19:45;3.50;;;3.20;;
32152;SDS011;18656;50.580;11.392;2023-06-26T09:22:13;9.07;;;3.50;;
32152;SDS011;18656;50.580;11.392;2023-06-26T09:24:41;4.72;;;3.33;;
32152;SDS011;18656;50.580;11.392;2023-06-26T09:27:10;3.85;;;3.38;;
32152;SDS011;18656;50.580;11.392;2023-06-26T09:29:38;4.93;;;3.33;;
32152;SDS011;18656;50.580;11.392;2023-06-26T09:32:07;5.32;;;3.35;;
32152;SDS011;18656;50.580;11.392;2023-06-26T09:34:35;6.65;;;3.50;;
32152;SDS011;18656;50.580;11.392;2023-06-26T09:37:03;3.90;;;3.22;;
32152;SDS011;18656;50.580;11.392;2023-06-26T09:39:30;4.93;;;3.30;;
32152;SDS011;18656;50.580;11.392;2023-06-26T09:41:58;4.53;;;3.55;;
32152;SDS011;18656;50.580;11.392;2023-06-26T09:44:26;16.20;;;4.10;;
32152;SDS011;18656;50.580;11.392;2023-06-26T09:46:55;3.85;;;3.55;;
32152;SDS011;18656;50.580;11.392;2023-06-26T09:49:23;6.00;;;3.25;;
32152;SDS011;18656;50.580;11.392;2023-06-26T09:51:52;3.45;;;3.28;;
32152;SDS011;18656;50.580;11.392;2023-06-26T09:54:21;8.45;;;6.78;;
32152;SDS011;18656;50.580;11.392;2023-06-26T09:56:48;5.78;;;5.38;;
32152;SDS011;18656;50.580;11.392;2023-06-26T09:59:16;19.67;;;15.88;;
32152;SDS011;18656;50.580;11.392;2023-06-26T10:01:45;5.40;;;4.28;;
32152;SDS011;18656;50.580;11.392;2023-06-26T10:04:13;4.57;;;4.30;;
32152;SDS011;18656;50.580;11.392;2023-06-26T10:06:41;4.13;;;3.80;;
32152;SDS011;18656;50.580;11.392;2023-06-26T10:09:12;3.28;;;3.08;;
32152;SDS011;18656;50.580;11.392;2023-06-26T10:11:50;3.60;;;3.30;;
32152;SDS011;18656;50.580;11.392;2023-06-26T10:14:19;8.32;;;4.13;;
32152;SDS011;18656;50.580;11.392;2023-06-26T10:16:48;3.75;;;3.45;;
32152;SDS011;18656;50.580;11.392;2023-06-26T10:19:18;8.05;;;7.45;;
32152;SDS011;18656;50.580;11.392;2023-06-26T10:21:52;4.03;;;3.65;;
32152;SDS011;18656;50.580;11.392;2023-06-26T10:24:23;3.58;;;3.30;;
32152;SDS011;18656;50.580;11.392;2023-06-26T10:26:52;3.80;;;3.60;;
32152;SDS011;18656;50.580;11.392;2023-06-26T10:29:20;3.58;;;3.25;;
32152;SDS011;18656;50.580;11.392;2023-06-26T10:31:49;3.90;;;3.40;;
32152;SDS011;18656;50.580;11.392;2023-06-26T10:34:17;4.07;;;3.83;;
32152;SDS011;18656;50.580;11.392;2023-06-26T10:36:44;5.38;;;4.97;;
32152;SDS011;18656;50.580;11.392;2023-06-26T10:39:13;3.65;;;3.35;;
32152;SDS011;18656;50.580;11.392;2023-06-26T10:41:41;3.38;;;3.20;;
32152;SDS011;18656;50.580;11.392;2023-06-26T10:44:26;3.95;;;3.55;;
32152;SDS011;18656;50.580;11.392;2023-06-26T10:46:54;2.78;;;2.67;;
32152;SDS011;18656;50.580;11.392;2023-06-26T10:49:27;3.60;;;3.30;;
32152;SDS011;18656;50.580;11.392;2023-06-26T10:51:55;3.30;;;3.20;;
32152;SDS011;18656;50.580;11.392;2023-06-26T10:54:27;9.07;;;3.30;;
32152;SDS011;18656;50.580;11.392;2023-06-26T10:56:55;3.60;;;3.30;;
32152;SDS011;18656;50.580;11.392;2023-06-26T10:59:26;3.53;;;3.33;;
32152;SDS011;18656;50.580;11.392;2023-06-26T11:01:54;4.25;;;3.30;;
32152;SDS011;18656;50.580;11.392;2023-06-26T11:04:38;3.50;;;3.30;;
32152;SDS011;18656;50.580;11.392;2023-06-26T11:07:16;6.50;;;3.30;;
32152;SDS011;18656;50.580;11.392;2023-06-26T11:09:57;5.60;;;3.30;;
32152;SDS011;18656;50.580;11.392;2023-06-26T11:12:37;6.18;;;3.92;;
32152;SDS011;18656;50.580;11.392;2023-06-26T11:17:42;4.47;;;3.67;;
32152;SDS011;18656;50.580;11.392;2023-06-26T11:20:11;4.28;;;3.97;;
32152;SDS011;18656;50.580;11.392;2023-06-26T11:22:39;4.75;;;3.80;;
32152;SDS011;18656;50.580;11.392;2023-06-26T11:25:07;5.50;;;4.00;;
32152;SDS011;18656;50.580;11.392;2023-06-26T11:30:06;9.95;;;4.05;;
32152;SDS011;18656;50.580;11.392;2023-06-26T11:32:34;3.95;;;3.55;;
32152;SDS011;18656;50.580;11.392;2023-06-26T11:35:01;3.85;;;3.58;;
32152;SDS011;18656;50.580;11.392;2023-06-26T11:37:28;4.07;;;3.75;;
32152;SDS011;18656;50.580;11.392;2023-06-26T11:39:55;3.50;;;3.30;;
32152;SDS011;18656;50.580;11.392;2023-06-26T11:42:23;4.30;;;3.90;;
32152;SDS011;18656;50.580;11.392;2023-06-26T11:44:53;3.90;;;3.60;;
32152;SDS011;18656;50.580;11.392;2023-06-26T11:47:21;4.80;;;4.22;;
32152;SDS011;18656;50.580;11.392;2023-06-26T11:49:49;4.13;;;3.83;;
32152;SDS011;18656;50.580;11.392;2023-06-26T11:52:16;3.78;;;3.42;;
32152;SDS011;18656;50.580;11.392;2023-06-26T11:54:44;3.97;;;3.75;;
32152;SDS011;18656;50.580;11.392;2023-06-26T11:57:15;6.53;;;3.72;;
32152;SDS011;18656;50.580;11.392;2023-06-26T11:59:44;4.10;;;3.75;;
32152;SDS011;18656;50.580;11.392;2023-06-26T12:02:13;4.35;;;3.95;;
32152;SDS011;18656;50.580;11.392;2023-06-26T12:04:41;4.03;;;3.80;;
32152;SDS011;18656;50.580;11.392;2023-06-26T12:07:10;4.80;;;4.40;;
32152;SDS011;18656;50.580;11.392;2023-06-26T12:09:41;4.35;;;4.05;;
32152;SDS011;18656;50.580;11.392;2023-06-26T12:12:10;9.13;;;4.03;;
32152;SDS011;18656;50.580;11.392;2023-06-26T12:14:38;4.47;;;4.15;;
32152;SDS011;18656;50.580;11.392;2023-06-26T12:17:11;4.75;;;4.00;;
32152;SDS011;18656;50.580;11.392;2023-06-26T12:19:39;4.75;;;4.15;;
32152;SDS011;18656;50.580;11.392;2023-06-26T12:22:07;4.50;;;4.00;;
32152;SDS011;18656;50.580;11.392;2023-06-26T12:24:36;6.30;;;3.72;;
32152;SDS011;18656;50.580;11.392;2023-06-26T12:27:07;5.28;;;4.13;;
32152;SDS011;18656;50.580;11.392;2023-06-26T12:29:35;4.82;;;4.53;;
32152;SDS011;18656;50.580;11.392;2023-06-26T12:32:03;6.53;;;4.38;;
32152;SDS011;18656;50.580;11.392;2023-06-26T12:34:32;4.53;;;3.97;;
32152;SDS011;18656;50.580;11.392;2023-06-26T12:37:01;4.80;;;4.00;;
32152;SDS011;18656;50.580;11.392;2023-06-26T12:39:29;4.13;;;3.72;;
32152;SDS011;18656;50.580;11.392;2023-06-26T12:41:57;8.63;;;4.47;;
32152;SDS011;18656;50.580;11.392;2023-06-26T12:44:25;5.30;;;3.92;;
32152;SDS011;18656;50.580;11.392;2023-06-26T12:46:54;4.40;;;4.10;;
32152;SDS011;18656;50.580;11.392;2023-06-26T12:49:35;4.00;;;3.67;;
32152;SDS011;18656;50.580;11.392;2023-06-26T12:52:03;7.57;;;4.40;;
32152;SDS011;18656;50.580;11.392;2023-06-26T12:54:30;4.22;;;3.92;;
32152;SDS011;18656;50.580;11.392;2023-06-26T12:56:58;9.40;;;4.18;;
32152;SDS011;18656;50.580;11.392;2023-06-26T12:59:25;10.02;;;4.18;;
32152;SDS011;18656;50.580;11.392;2023-06-26T13:01:52;8.75;;;4.25;;
32152;SDS011;18656;50.580;11.392;2023-06-26T13:04:20;5.03;;;4.53;;
32152;SDS011;18656;50.580;11.392;2023-06-26T13:06:47;4.32;;;4.03;;
32152;SDS011;18656;50.580;11.392;2023-06-26T13:09:14;5.03;;;4.10;;
32152;SDS011;18656;50.580;11.392;2023-06-26T13:11:42;6.97;;;4.78;;
32152;SDS011;18656;50.580;11.392;2023-06-26T13:14:09;8.05;;;4.80;;
32152;SDS011;18656;50.580;11.392;2023-06-26T13:16:37;4.60;;;4.05;;
32152;SDS011;18656;50.580;11.392;2023-06-26T13:19:05;14.75;;;4.70;;
32152;SDS011;18656;50.580;11.392;2023-06-26T13:21:33;4.50;;;3.90;;
32152;SDS011;18656;50.580;11.392;2023-06-26T13:24:00;4.57;;;4.13;;
32152;SDS011;18656;50.580;11.392;2023-06-26T13:26:29;4.63;;;4.22;;
32152;SDS011;18656;50.580;11.392;2023-06-26T13:28:59;4.35;;;4.03;;
32152;SDS011;18656;50.580;11.392;2023-06-26T13:31:27;4.72;;;4.22;;
32152;SDS011;18656;50.580;11.392;2023-06-26T13:33:57;6.47;;;4.35;;
32152;SDS011;18656;50.580;11.392;2023-06-26T13:36:25;3.72;;;3.50;;
32152;SDS011;18656;50.580;11.392;2023-06-26T13:38:53;4.47;;;3.65;;
32152;SDS011;18656;50.580;11.392;2023-06-26T13:41:23;5.10;;;4.50;;
32152;SDS011;18656;50.580;11.392;2023-06-26T13:43:51;4.63;;;3.90;;
32152;SDS011;18656;50.580;11.392;2023-06-26T13:46:18;6.55;;;4.55;;
32152;SDS011;18656;50.580;11.392;2023-06-26T13:48:46;5.50;;;4.25;;
32152;SDS011;18656;50.580;11.392;2023-06-26T13:51:13;4.82;;;3.78;;
32152;SDS011;18656;50.580;11.392;2023-06-26T13:53:40;4.45;;;4.15;;
32152;SDS011;18656;50.580;11.392;2023-06-26T13:56:08;4.70;;;4.30;;
32152;SDS011;18656;50.580;11.392;2023-06-26T13:58:35;4.95;;;4.13;;
32152;SDS011;18656;50.580;11.392;2023-06-26T14:01:05;8.60;;;4.20;;
32152;SDS011;18656;50.580;11.392;2023-06-26T14:03:33;5.72;;;4.15;;
32152;SDS011;18656;50.580;11.392;2023-06-26T14:06:00;4.40;;;4.10;;
32152;SDS011;18656;50.580;11.392;2023-06-26T14:08:27;6.68;;;4.47;;
32152;SDS011;18656;50.580;11.392;2023-06-26T14:10:55;8.13;;;4.22;;
32152;SDS011;18656;50.580;11.392;2023-06-26T14:13:22;4.47;;;4.18;;
32152;SDS011;18656;50.580;11.392;2023-06-26T14:15:49;5.72;;;4.50;;
32152;SDS011;18656;50.580;11.392;2023-06-26T14:18:19;5.32;;;4.13;;
32152;SDS011;18656;50.580;11.392;2023-06-26T14:20:50;4.88;;;4.40;;
32152;SDS011;18656;50.580;11.392;2023-06-26T14:23:18;7.03;;;4.75;;
32152;SDS011;18656;50.580;11.392;2023-06-26T14:25:45;15.35;;;5.10;;
32152;SDS011;18656;50.580;11.392;2023-06-26T14:28:15;5.65;;;4.65;;
32152;SDS011;18656;50.580;11.392;2023-06-26T14:30:42;7.20;;;4.75;;
32152;SDS011;18656;50.580;11.392;2023-06-26T14:33:10;6.97;;;4.07;;
32152;SDS011;18656;50.580;11.392;2023-06-26T14:35:37;6.97;;;4.82;;
32152;SDS011;18656;50.580;11.392;2023-06-26T14:38:04;5.22;;;4.63;;
32152;SDS011;18656;50.580;11.392;2023-06-26T14:40:31;14.52;;;5.32;;
32152;SDS011;18656;50.580;11.392;2023-06-26T14:42:59;4.65;;;4.25;;
32152;SDS011;18656;50.580;11.392;2023-06-26T14:45:27;5.45;;;4.38;;
32152;SDS011;18656;50.580;11.392;2023-06-26T14:47:55;7.05;;;4.22;;